Veseli, Minnesota
Current Conditions -  °F | °C
As of 10:14 PM on Tuesday 21 Oct 2014 (Local Time) from KFBL Reporting Station
Clear Clear  
Wind Chill: 43°   Ceiling: Unl
Heat Index: 46°   Visibility: 10mi
Dew Point: 39°   Wind: 7mph
Humidity: 76%   Direction: 130°SE
Pressure: 30.18"   Gusts: NA
Location:  44.4527°N, 93.4244°W
Report Text: KFBL 220314Z AUTO 13006KT 10SM CLR 08/04 A3018 RMK AO2
Loading
Personal Weather Stations






























Interactive Weather Map
Tropical Storm Tracking
New forecast layout! Learn more

10-Day Weather Forecast

Advertisements
Track Severe Weather on mobile